createdAt,value
2023-04-01T00:04:03.981Z,990.6
2023-04-01T00:09:03.523Z,990.6
2023-04-01T00:14:03.599Z,990.7
2023-04-01T00:19:55.271Z,990.6
2023-04-01T00:24:03.081Z,990.6
2023-04-01T00:29:02.931Z,990.6
2023-04-01T00:34:03.988Z,990.6
2023-04-01T00:39:01.306Z,990.6
2023-04-01T00:44:01.213Z,990.6
2023-04-01T00:49:00.495Z,990.6
2023-04-01T00:54:00.423Z,990.5
2023-04-01T00:58:58.032Z,990.5
2023-04-01T01:00:44.766Z,990.5
2023-04-01T01:05:34.083Z,990.4
2023-04-01T01:10:28.278Z,990.5
2023-04-01T01:15:28.222Z,990.4
2023-04-01T01:20:37.527Z,990.4
2023-04-01T01:25:27.265Z,990.4
2023-04-01T01:35:27.144Z,990.4
2023-04-01T01:40:28.013Z,990.4
2023-04-01T01:45:25.310Z,990.5
2023-04-01T01:50:25.367Z,990.3
2023-04-01T01:55:26.323Z,990.2
2023-04-01T02:44:14.425Z,990.2
2023-04-01T05:08:56.196Z,989.7
2023-04-01T05:13:56.115Z,989.8
2023-04-01T05:18:55.662Z,989.7
2023-04-01T05:23:55.262Z,989.8
2023-04-01T05:28:54.882Z,989.7
2023-04-01T05:33:54.141Z,989.7
2023-04-01T05:38:54.490Z,989.8
2023-04-01T05:43:54.194Z,989.9
2023-04-01T05:48:55.039Z,989.9
2023-04-01T05:53:52.490Z,989.8
2023-04-01T05:58:52.178Z,989.9
2023-04-01T06:00:39.590Z,989.8
2023-04-01T06:05:13.630Z,989.8
2023-04-01T06:10:13.347Z,989.9
2023-04-01T06:15:12.426Z,989.8
2023-04-01T06:20:11.763Z,989.9
2023-04-01T06:25:13.520Z,990
2023-04-01T06:30:09.063Z,990.1
2023-04-01T06:35:09.365Z,990
2023-04-01T06:40:08.526Z,990.1
2023-04-01T06:45:08.663Z,990
2023-04-01T06:50:06.123Z,990
2023-04-01T06:55:05.750Z,990
2023-04-01T07:04:13.278Z,990
2023-04-01T07:09:15.007Z,990.1
2023-04-01T07:14:12.376Z,990
2023-04-01T07:19:12.501Z,990.1
2023-04-01T07:24:12.430Z,990.2
2023-04-01T07:29:09.978Z,990.1
2023-04-01T07:34:10.144Z,990.2
2023-04-01T07:39:09.240Z,990.3
2023-04-01T07:44:08.923Z,990.3
2023-04-01T07:49:08.193Z,990.2
2023-04-01T07:54:07.887Z,990.2
2023-04-01T07:59:07.943Z,990.3
2023-04-01T08:04:08.045Z,990.2
2023-04-01T08:09:08.597Z,990.3
2023-04-01T08:14:05.077Z,990.2
2023-04-01T08:19:05.169Z,990.3
2023-04-01T08:24:04.815Z,990.2
2023-04-01T08:29:04.936Z,990.4
2023-04-01T08:34:02.547Z,990.4
2023-04-01T08:39:02.572Z,990.3
2023-04-01T08:44:01.762Z,990.4
2023-04-01T08:49:01.760Z,990.4
2023-04-01T08:54:01.059Z,990.4
2023-04-01T08:59:00.887Z,990.4
2023-04-01T09:04:00.865Z,990.4
2023-04-01T09:09:00.768Z,990.6
2023-04-01T09:13:58.400Z,990.5
2023-04-01T09:18:57.992Z,990.6
2023-04-01T09:23:57.540Z,990.5
2023-04-01T09:28:57.360Z,990.6
2023-04-01T09:33:56.754Z,990.5
2023-04-01T09:38:56.361Z,990.7
2023-04-01T09:43:56.731Z,990.7
2023-04-01T09:48:55.921Z,990.6
2023-04-01T09:53:57.045Z,990.7
2023-04-01T09:58:54.029Z,990.6
2023-04-01T10:00:40.227Z,990.8
2023-04-01T10:05:25.371Z,990.8
2023-04-01T10:10:24.615Z,990.8
2023-04-01T10:15:25.121Z,990.9
2023-04-01T10:20:24.746Z,990.9
2023-04-01T10:25:16.857Z,990.8
2023-04-01T10:30:11.825Z,990.9
2023-04-01T10:35:12.070Z,990.8
2023-04-01T10:40:11.069Z,990.9
2023-04-01T10:45:10.382Z,990.9
2023-04-01T10:50:09.665Z,990.9
2023-04-01T10:55:09.067Z,991
2023-04-01T12:04:11.033Z,991.5
2023-04-01T12:09:11.282Z,991.5
2023-04-01T12:14:07.707Z,991.5
2023-04-01T12:19:08.229Z,991.6
2023-04-01T12:24:08.165Z,991.6
2023-04-01T12:29:07.910Z,991.6
2023-04-01T12:34:07.638Z,991.7
2023-04-01T12:39:07.062Z,991.8
2023-04-01T12:44:06.821Z,991.8
2023-04-01T12:49:07.937Z,991.7
2023-04-01T12:54:04.393Z,991.7
2023-04-01T12:59:04.420Z,991.8
2023-04-01T13:04:04.058Z,991.8
2023-04-01T13:09:03.841Z,991.9
2023-04-01T13:14:01.444Z,991.9
2023-04-01T13:19:01.330Z,992
2023-04-01T13:24:00.598Z,992
2023-04-01T13:29:00.364Z,991.9
2023-04-01T13:33:59.653Z,992
2023-04-01T13:38:59.346Z,992
2023-04-01T13:43:58.683Z,992.1
2023-04-01T13:48:58.089Z,992.1
2023-04-01T13:53:59.338Z,992.1
2023-04-01T13:58:56.084Z,992.1
2023-04-01T14:00:44.527Z,992.2
2023-04-01T14:05:40.059Z,992.2
2023-04-01T14:10:25.374Z,992.2
2023-04-01T14:15:25.405Z,992.2
2023-04-01T14:20:25.686Z,992.3
2023-04-01T14:25:13.101Z,992.2
2023-04-01T14:30:12.687Z,992.2
2023-04-01T14:35:12.422Z,992.2
2023-04-01T14:40:11.775Z,992.2
2023-04-01T14:45:11.266Z,992.2
2023-04-01T14:50:12.918Z,992.3
2023-04-01T14:55:09.913Z,992.2
2023-04-01T15:59:11.902Z,992.5
2023-04-01T16:39:06.964Z,992.7
2023-04-01T17:04:04.922Z,993.1
2023-04-01T17:09:04.591Z,993.2
2023-04-01T17:14:04.672Z,993.2
2023-04-01T17:19:02.373Z,993.3
2023-04-01T17:24:02.395Z,993.3
2023-04-01T17:29:01.834Z,993.4
2023-04-01T17:34:00.860Z,993.4
2023-04-01T17:39:00.356Z,993.5
2023-04-01T17:43:59.908Z,993.5
2023-04-01T17:49:00.197Z,993.6
2023-04-01T17:53:59.636Z,993.7
2023-04-01T17:59:00.845Z,993.7
2023-04-01T18:03:57.907Z,993.8
2023-04-01T18:08:57.133Z,993.7
2023-04-01T18:13:56.821Z,993.7
2023-04-01T18:18:56.572Z,993.8
2023-04-01T18:24:03.159Z,993.8
2023-04-01T18:28:53.904Z,993.8
2023-04-01T18:33:53.623Z,993.9
2023-04-01T18:38:53.041Z,993.9
2023-04-01T18:43:51.798Z,994
2023-04-01T18:48:52.110Z,994
2023-04-01T18:53:51.389Z,994.1
2023-04-01T18:58:51.600Z,994.2
2023-04-01T19:00:39.316Z,994.2
2023-04-01T19:05:13.436Z,994.3
2023-04-01T19:10:14.368Z,994.4
2023-04-01T19:15:15.060Z,994.4
2023-04-01T19:20:12.025Z,994.5
2023-04-01T19:26:05.204Z,994.6
2023-04-01T19:30:12.026Z,994.6
2023-04-01T19:35:11.462Z,994.6
2023-04-01T19:40:11.169Z,994.7
2023-04-01T19:45:10.474Z,994.7
2023-04-01T19:50:12.332Z,994.8
2023-04-01T19:55:07.782Z,994.8
2023-04-01T20:04:27.393Z,994.8
2023-04-01T20:09:25.573Z,994.9
2023-04-01T20:14:26.115Z,994.9
2023-04-01T20:19:25.764Z,995.1
2023-04-01T20:24:26.759Z,995.2
2023-04-01T20:29:13.550Z,995.2
2023-04-01T20:34:12.898Z,995.2
2023-04-01T20:39:13.084Z,995.2
2023-04-01T20:44:10.139Z,995.2
2023-04-01T20:49:09.964Z,995.2
2023-04-01T20:54:09.445Z,995.2
2023-04-01T20:59:09.314Z,995.3
2023-04-01T21:04:10.558Z,995.3
2023-04-01T21:09:08.533Z,995.4
2023-04-01T21:14:08.381Z,995.4
2023-04-01T21:19:07.846Z,995.5
2023-04-01T21:24:09.035Z,995.5
2023-04-01T21:29:05.454Z,995.6
2023-04-01T21:34:05.589Z,995.6
2023-04-01T21:39:05.530Z,995.6
2023-04-01T21:44:04.896Z,995.7
2023-04-01T21:49:02.786Z,995.7
2023-04-01T21:54:02.738Z,995.7
2023-04-01T21:59:02.174Z,995.8
2023-04-01T22:04:01.781Z,995.9
2023-04-01T22:09:00.887Z,995.9
2023-04-01T22:14:10.620Z,996
2023-04-01T22:19:11.234Z,996
2023-04-01T22:24:08.916Z,996
2023-04-01T22:29:08.432Z,996
2023-04-01T22:34:08.493Z,996
2023-04-01T22:38:57.376Z,996.1
2023-04-01T22:43:56.600Z,996
2023-04-01T22:48:56.643Z,996.1
2023-04-01T22:53:56.006Z,996.1
2023-04-01T22:58:58.108Z,996.1
2023-04-01T23:03:49.641Z,996.1
2023-04-01T23:08:49.745Z,996.2
2023-04-01T23:13:49.067Z,996.2
2023-04-01T23:18:49.197Z,996.3
2023-04-01T23:23:46.868Z,996.3
2023-04-01T23:28:46.620Z,996.4
2023-04-01T23:33:45.954Z,996.5
2023-04-01T23:38:45.768Z,996.5
2023-04-01T23:43:45.342Z,996.6
2023-04-01T23:48:47.112Z,996.7
2023-04-01T23:53:45.824Z,996.8
2023-04-01T23:58:47.112Z,996.9
